Time;durP1;ratioP1;P1;durP2;ratioP2;P2;SDS_P1;SDS_P2;PMS_P1;PMS_P2;Temp;Humidity;BMP_temperature;BMP_pressure;BME280_temperature;BME280_humidity;BME280_pressure;Samples;Min_cycle;Max_cycle;Signal;HPM_P1;HPM_P2
2023/12/05 00:02:15;;;;;;;45.78;22.38;;;;;;;5.28;100.00;99654.00;5213452;28;20040;-74
2023/12/05 00:04:45;;;;;;;48.67;23.35;;;;;;;5.28;100.00;99658.47;5211229;28;20496;-74
2023/12/05 00:07:19;;;;;;;54.67;24.05;;;;;;;5.29;100.00;99655.66;5212838;28;20469;-74
2023/12/05 00:09:49;;;;;;;49.78;24.60;;;;;;;5.32;100.00;99651.81;5207812;28;20388;-74
2023/12/05 00:12:20;;;;;;;56.72;23.55;;;;;;;5.33;100.00;99653.50;5214128;28;20033;-74
2023/12/05 00:14:50;;;;;;;54.33;22.83;;;;;;;5.35;100.00;99652.34;5207586;28;20048;-74
2023/12/05 00:17:21;;;;;;;59.05;23.20;;;;;;;5.36;100.00;99647.84;5213594;28;20021;-74
2023/12/05 00:19:51;;;;;;;57.78;25.05;;;;;;;5.38;100.00;99648.53;5210259;28;20037;-74
2023/12/05 00:22:25;;;;;;;59.70;24.40;;;;;;;5.33;100.00;99642.88;5206983;28;20035;-74
2023/12/05 00:24:56;;;;;;;58.17;25.63;;;;;;;5.31;100.00;99648.31;5208425;28;20512;-74
2023/12/05 00:27:26;;;;;;;56.47;25.85;;;;;;;5.29;100.00;99650.31;5209767;28;20111;-74
2023/12/05 00:29:57;;;;;;;60.28;26.00;;;;;;;5.30;100.00;99646.66;5223936;28;20387;-74
2023/12/05 00:32:27;;;;;;;70.15;29.13;;;;;;;5.29;100.00;99641.53;5213164;28;20028;-74
2023/12/05 00:34:58;;;;;;;73.22;28.67;;;;;;;5.30;100.00;99644.00;5207592;28;20293;-74
2023/12/05 00:37:28;;;;;;;68.70;28.05;;;;;;;5.31;100.00;99635.03;5209271;28;20060;-74
2023/12/05 00:39:59;;;;;;;69.35;27.75;;;;;;;5.30;100.00;99648.50;5209497;28;20026;-74
2023/12/05 00:42:29;;;;;;;62.13;27.95;;;;;;;5.33;100.00;99645.53;5210500;28;20033;-74
2023/12/05 00:44:59;;;;;;;63.63;28.35;;;;;;;5.32;100.00;99641.19;5208887;28;20032;-74
2023/12/05 00:47:30;;;;;;;73.35;29.42;;;;;;;5.41;100.00;99645.53;5213224;28;20485;-74
2023/12/05 00:50:01;;;;;;;71.10;28.73;;;;;;;5.38;100.00;99644.03;5206609;28;20482;-74
2023/12/05 00:52:31;;;;;;;64.68;27.60;;;;;;;5.38;100.00;99641.38;5209652;28;20037;-74
2023/12/05 00:55:03;;;;;;;70.97;29.52;;;;;;;5.38;100.00;99651.19;5211070;28;20550;-74
2023/12/05 00:57:33;;;;;;;66.93;27.25;;;;;;;5.37;100.00;99655.69;5202748;28;20030;-74
2023/12/05 01:00:06;;;;;;;63.42;26.52;;;;;;;5.37;100.00;99642.38;5210120;28;20036;-74
2023/12/05 01:02:36;;;;;;;70.60;29.30;;;;;;;5.40;100.00;99649.19;5210274;28;20480;-74
2023/12/05 01:05:09;;;;;;;72.43;28.90;;;;;;;5.38;100.00;99644.03;5209305;28;20032;-74
2023/12/05 01:07:39;;;;;;;70.43;28.95;;;;;;;5.38;100.00;99649.38;5210950;28;20081;-74
2023/12/05 01:10:10;;;;;;;78.25;29.02;;;;;;;5.40;100.00;99650.03;5208108;28;20021;-74
2023/12/05 01:12:40;;;;;;;70.93;28.80;;;;;;;5.39;100.00;99645.69;5210484;28;20029;-74
2023/12/05 01:15:11;;;;;;;70.93;28.45;;;;;;;5.36;100.00;99645.19;5206870;28;20022;-74
2023/12/05 01:17:41;;;;;;;82.55;31.52;;;;;;;5.31;100.00;99648.31;5208270;28;20044;-74
2023/12/05 01:20:12;;;;;;;72.72;29.40;;;;;;;5.31;100.00;99645.66;5209862;28;20033;-74
2023/12/05 01:22:43;;;;;;;76.43;31.00;;;;;;;5.34;100.00;99653.34;5207176;28;20295;-74
2023/12/05 01:25:13;;;;;;;77.88;30.35;;;;;;;5.31;100.00;99650.16;5210095;28;20028;-74
2023/12/05 01:27:44;;;;;;;79.65;30.73;;;;;;;5.29;100.00;99650.31;5206035;28;20021;-74
2023/12/05 01:30:14;;;;;;;75.40;29.88;;;;;;;5.27;100.00;99655.00;5210256;28;20025;-74
2023/12/05 01:32:45;;;;;;;95.20;31.77;;;;;;;5.31;100.00;99653.66;5210038;28;20183;-74
2023/12/05 01:35:16;;;;;;;94.90;32.92;;;;;;;5.34;100.00;99658.66;5208126;28;20496;-74
2023/12/05 01:37:48;;;;;;;84.20;32.90;;;;;;;5.32;100.00;99652.69;5209199;28;20041;-74
2023/12/05 01:40:18;;;;;;;98.03;34.75;;;;;;;5.34;100.00;99656.00;5209036;28;20044;-74
2023/12/05 01:42:49;;;;;;;94.30;34.15;;;;;;;5.37;100.00;99658.34;5204320;28;20461;-74
2023/12/05 01:45:19;;;;;;;98.32;33.78;;;;;;;5.36;100.00;99654.00;5213399;28;20037;-74
2023/12/05 01:47:50;;;;;;;98.70;34.88;;;;;;;5.32;100.00;99654.47;5207170;28;20066;-74
2023/12/05 01:50:25;;;;;;;93.40;34.50;;;;;;;5.34;100.00;99663.97;5212316;28;20063;-74
2023/12/05 01:52:59;;;;;;;100.40;33.47;;;;;;;5.34;100.00;99669.28;5205482;28;20025;-74
2023/12/05 01:55:31;;;;;;;100.80;34.95;;;;;;;5.34;100.00;99663.97;5204644;28;20090;-74
2023/12/05 01:58:01;;;;;;;96.88;35.42;;;;;;;5.36;100.00;99663.81;5207068;28;20021;-74
2023/12/05 02:00:32;;;;;;;92.93;34.80;;;;;;;5.35;100.00;99657.66;5209588;28;20499;-74
2023/12/05 02:03:03;;;;;;;101.97;36.28;;;;;;;5.36;100.00;99666.47;5213902;28;20032;-74
2023/12/05 02:05:35;;;;;;;99.82;35.97;;;;;;;5.36;100.00;99669.94;5211557;28;20051;-74
2023/12/05 02:08:09;;;;;;;97.85;34.78;;;;;;;5.42;100.00;99665.81;5211409;28;20137;-74
2023/12/05 02:10:39;;;;;;;103.05;36.38;;;;;;;5.42;100.00;99666.66;5209338;28;20456;-74
2023/12/05 02:13:10;;;;;;;103.93;36.22;;;;;;;5.39;100.00;99664.31;5209353;28;20029;-74
2023/12/05 02:15:40;;;;;;;99.35;36.78;;;;;;;5.38;100.00;99667.97;5209229;28;20048;-74
2023/12/05 02:18:18;;;;;;;106.57;36.30;;;;;;;5.39;100.00;99664.31;5208751;28;20018;-74
2023/12/05 02:21:05;;;;;;;106.70;35.42;;;;;;;5.40;100.00;99673.97;5210348;28;20052;-74
2023/12/05 02:23:50;;;;;;;94.72;33.47;;;;;;;5.40;100.00;99665.97;5208901;28;20086;-74
2023/12/05 02:26:41;;;;;;;95.07;35.40;;;;;;;5.39;100.00;99668.81;5211163;28;20033;-74
2023/12/05 02:29:12;;;;;;;100.32;34.83;;;;;;;5.39;100.00;99664.31;5210854;28;20476;-74
2023/12/05 02:31:43;;;;;;;92.18;34.00;;;;;;;5.35;100.00;99667.47;5207509;28;20032;-74
2023/12/05 02:34:13;;;;;;;96.68;34.28;;;;;;;5.35;100.00;99678.09;5209586;28;20021;-74
2023/12/05 02:37:14;;;;;;;100.22;34.97;;;;;;;5.35;100.00;99673.59;5204881;28;20510;-74
2023/12/05 02:40:02;;;;;;;93.07;33.00;;;;;;;5.33;100.00;99680.09;5209580;28;20115;-73
2023/12/05 02:42:34;;;;;;;95.45;35.42;;;;;;;5.30;100.00;99675.91;5203250;28;20095;-74
2023/12/05 02:45:11;;;;;;;94.95;35.47;;;;;;;5.31;100.00;99669.59;5210123;28;20029;-74
2023/12/05 02:47:44;;;;;;;97.10;36.20;;;;;;;5.34;100.00;99679.94;5207960;28;20029;-74
2023/12/05 02:50:16;;;;;;;94.25;34.70;;;;;;;5.31;100.00;99680.25;5210100;28;20036;-74
2023/12/05 02:52:47;;;;;;;96.18;34.40;;;;;;;5.31;100.00;99676.75;5209165;28;20036;-74
2023/12/05 02:55:18;;;;;;;97.97;34.97;;;;;;;5.26;100.00;99679.06;5210873;28;20037;-74
2023/12/05 02:57:48;;;;;;;89.57;32.63;;;;;;;5.31;100.00;99682.06;5207739;28;20392;-74
2023/12/05 03:00:19;;;;;;;106.13;34.30;;;;;;;5.30;100.00;99681.25;5208503;28;20407;-74
2023/12/05 03:02:50;;;;;;;91.28;33.90;;;;;;;5.32;100.00;99681.94;5212103;28;20044;-74
2023/12/05 03:05:20;;;;;;;91.75;32.78;;;;;;;5.31;100.00;99680.25;5210712;28;20029;-74
2023/12/05 03:07:51;;;;;;;98.38;33.78;;;;;;;5.33;100.00;99686.25;5206440;28;20026;-74
2023/12/05 03:10:21;;;;;;;106.88;35.50;;;;;;;5.33;100.00;99683.59;5201948;28;20029;-74
2023/12/05 03:12:52;;;;;;;101.18;34.65;;;;;;;5.33;100.00;99678.28;5205497;28;20033;-74
2023/12/05 03:15:22;;;;;;;99.90;36.10;;;;;;;5.33;100.00;99674.78;5208565;28;20051;-74
2023/12/05 03:17:53;;;;;;;98.60;35.53;;;;;;;5.35;100.00;99678.94;5203927;28;20025;-74
2023/12/05 03:20:24;;;;;;;103.22;34.78;;;;;;;5.29;100.00;99684.06;5212047;28;20079;-74
2023/12/05 03:22:54;;;;;;;101.75;35.45;;;;;;;5.33;100.00;99682.75;5204576;28;20481;-74
2023/12/05 03:25:25;;;;;;;99.03;34.95;;;;;;;5.35;100.00;99686.91;5209060;28;20025;-74
2023/12/05 03:27:56;;;;;;;100.35;34.88;;;;;;;5.37;100.00;99690.25;5205541;28;20116;-74
2023/12/05 03:30:26;;;;;;;101.50;36.75;;;;;;;5.36;100.00;99680.59;5210711;28;20549;-74
2023/12/05 03:32:57;;;;;;;99.47;35.38;;;;;;;5.38;100.00;99677.78;5208430;28;20036;-74
2023/12/05 03:35:27;;;;;;;96.80;34.33;;;;;;;5.37;100.00;99686.72;5209550;28;20037;-74
2023/12/05 03:37:58;;;;;;;100.25;35.35;;;;;;;5.36;100.00;99685.91;5204757;28;20026;-74
2023/12/05 03:40:28;;;;;;;105.22;35.85;;;;;;;5.36;100.00;99682.41;5213443;28;20099;-74
2023/12/05 03:42:59;;;;;;;96.30;33.70;;;;;;;5.34;100.00;99679.94;5189358;28;20048;-74
2023/12/05 03:45:29;;;;;;;92.78;34.15;;;;;;;5.34;100.00;99682.59;5209094;28;20029;-74
2023/12/05 03:48:00;;;;;;;104.18;35.28;;;;;;;5.30;100.00;99683.91;5206298;28;20087;-74
2023/12/05 03:50:30;;;;;;;98.72;34.25;;;;;;;5.32;100.00;99684.59;5212089;28;20035;-74
2023/12/05 03:53:01;;;;;;;104.35;35.20;;;;;;;5.31;100.00;99682.91;5211038;28;20029;-74
2023/12/05 03:55:34;;;;;;;99.10;36.03;;;;;;;5.36;100.00;99698.38;5213371;28;20041;-74
2023/12/05 03:58:04;;;;;;;93.03;33.45;;;;;;;5.38;100.00;99696.41;5205341;28;20432;-74
2023/12/05 04:00:35;;;;;;;94.38;33.67;;;;;;;5.36;100.00;99704.53;5207972;28;20032;-74
2023/12/05 04:03:05;;;;;;;102.22;35.90;;;;;;;5.37;100.00;99703.56;5216740;28;20021;-74
2023/12/05 04:05:36;;;;;;;100.30;33.72;;;;;;;5.39;100.00;99712.19;5215149;28;20028;-74
2023/12/05 04:08:06;;;;;;;107.20;35.53;;;;;;;5.40;100.00;99713.03;5214536;28;20045;-74
2023/12/05 04:10:37;;;;;;;93.63;35.05;;;;;;;5.37;100.00;99714.19;5212845;28;20056;-75
2023/12/05 04:13:07;;;;;;;108.97;36.90;;;;;;;5.37;100.00;99710.69;5213555;28;20030;-74
2023/12/05 04:15:39;;;;;;;100.82;34.10;;;;;;;5.37;100.00;99718.66;5214342;28;20349;-74
2023/12/05 04:18:09;;;;;;;107.55;36.25;;;;;;;5.35;100.00;99718.00;5213928;28;20082;-74
2023/12/05 04:20:40;;;;;;;117.38;37.97;;;;;;;5.34;100.00;99727.81;5216150;28;20037;-75
2023/12/05 04:23:11;;;;;;;112.53;37.25;;;;;;;5.33;100.00;99726.13;5211238;28;20022;-74
2023/12/05 04:25:41;;;;;;;104.55;35.08;;;;;;;5.35;100.00;99728.63;5210903;28;20044;-74
2023/12/05 04:28:12;;;;;;;104.93;35.72;;;;;;;5.32;100.00;99729.81;5215401;28;20026;-74
2023/12/05 04:30:42;;;;;;;101.53;34.60;;;;;;;5.38;100.00;99730.97;5208925;28;20032;-74
2023/12/05 04:33:12;;;;;;;107.47;36.13;;;;;;;5.38;100.00;99737.13;5213029;28;20064;-74
2023/12/05 04:35:43;;;;;;;99.15;34.10;;;;;;;5.37;100.00;99727.50;5202002;28;20365;-74
2023/12/05 04:38:15;;;;;;;103.63;36.92;;;;;;;5.31;100.00;99733.44;5213121;28;20033;-74
2023/12/05 04:40:45;;;;;;;103.32;35.90;;;;;;;5.29;100.00;99737.25;5209787;28;20051;-74
2023/12/05 04:43:18;;;;;;;116.70;37.63;;;;;;;5.26;100.00;99733.06;5211559;28;20021;-74
2023/12/05 04:45:49;;;;;;;112.55;36.95;;;;;;;5.28;100.00;99736.44;5208694;28;20053;-74
2023/12/05 04:48:19;;;;;;;102.70;34.92;;;;;;;5.29;100.00;99732.75;5215559;28;20119;-74
2023/12/05 04:50:50;;;;;;;125.32;38.38;;;;;;;5.31;100.00;99735.25;5210334;28;20052;-74
2023/12/05 04:53:20;;;;;;;111.05;36.67;;;;;;;5.27;100.00;99737.44;5210013;28;20025;-75
2023/12/05 04:55:51;;;;;;;118.20;36.45;;;;;;;5.28;100.00;99741.75;5208055;28;20125;-75
2023/12/05 04:58:21;;;;;;;116.20;35.83;;;;;;;5.28;100.00;99747.06;5212292;28;20500;-75
2023/12/05 05:00:52;;;;;;;119.50;36.63;;;;;;;5.26;100.00;99751.69;5206577;28;20072;-75
2023/12/05 05:03:22;;;;;;;114.40;37.42;;;;;;;5.25;100.00;99750.03;5212994;28;20033;-75
2023/12/05 05:05:53;;;;;;;131.32;39.63;;;;;;;5.29;100.00;99750.56;5211020;28;20025;-75
2023/12/05 05:08:23;;;;;;;137.27;39.20;;;;;;;5.29;100.00;99747.88;5212903;28;20083;-75
2023/12/05 05:10:54;;;;;;;128.60;40.72;;;;;;;5.26;100.00;99751.69;5208854;28;20033;-75
2023/12/05 05:13:24;;;;;;;133.45;38.58;;;;;;;5.27;100.00;99749.84;5209032;28;20037;-75
2023/12/05 05:15:55;;;;;;;143.80;43.25;;;;;;;5.24;100.00;99750.19;5210332;28;20029;-75
2023/12/05 05:18:25;;;;;;;131.77;40.80;;;;;;;5.25;100.00;99763.31;5209474;28;20024;-75
2023/12/05 05:20:56;;;;;;;155.77;41.88;;;;;;;5.27;100.00;99764.00;5210424;28;20739;-75
2023/12/05 05:23:26;;;;;;;135.43;41.45;;;;;;;5.30;100.00;99762.84;5210564;28;20041;-75
2023/12/05 05:25:57;;;;;;;146.70;42.08;;;;;;;5.25;100.00;99768.63;5209582;28;20022;-75
2023/12/05 05:28:27;;;;;;;149.77;40.65;;;;;;;5.26;100.00;99766.81;5210339;28;20248;-75
2023/12/05 05:30:58;;;;;;;134.05;40.25;;;;;;;5.31;100.00;99772.50;5205114;28;20029;-75
2023/12/05 05:33:29;;;;;;;132.00;39.00;;;;;;;5.28;100.00;99781.63;5214193;28;20031;-75
2023/12/05 05:35:59;;;;;;;127.28;38.60;;;;;;;5.25;100.00;99778.44;5207225;28;20195;-75
2023/12/05 05:38:30;;;;;;;131.18;37.78;;;;;;;5.23;100.00;99778.63;5214101;28;20074;-75
2023/12/05 05:41:05;;;;;;;109.60;35.45;;;;;;;5.19;100.00;99780.75;5202684;28;20022;-75
2023/12/05 05:43:35;;;;;;;115.35;33.63;;;;;;;5.23;100.00;99783.94;5208552;28;20098;-75
2023/12/05 05:46:06;;;;;;;100.90;32.25;;;;;;;5.22;100.00;99792.03;5210464;28;20021;-75
2023/12/05 05:48:37;;;;;;;110.78;33.22;;;;;;;5.15;100.00;99791.84;5207973;28;20033;-75
2023/12/05 05:51:08;;;;;;;102.35;32.95;;;;;;;5.14;100.00;99790.19;5209613;28;20029;-75
2023/12/05 05:53:38;;;;;;;96.45;32.03;;;;;;;5.17;100.00;99805.81;5209509;28;20033;-75
2023/12/05 05:56:09;;;;;;;100.75;33.00;;;;;;;5.19;100.00;99801.19;5207663;28;20025;-76
2023/12/05 05:58:40;;;;;;;94.07;32.05;;;;;;;5.21;100.00;99796.53;5209276;28;20040;-75
2023/12/05 06:01:12;;;;;;;99.55;31.02;;;;;;;5.23;100.00;99799.88;5207247;28;20032;-76
2023/12/05 06:03:42;;;;;;;84.78;28.90;;;;;;;5.18;100.00;99813.66;5210529;28;20395;-75
2023/12/05 06:06:13;;;;;;;92.90;30.05;;;;;;;5.17;100.00;99813.78;5212079;28;20022;-75
2023/12/05 06:08:43;;;;;;;78.90;27.85;;;;;;;5.11;100.00;99819.72;5209017;28;20029;-76
2023/12/05 06:11:13;;;;;;;83.72;27.15;;;;;;;5.15;100.00;99821.09;5211759;28;20064;-76
2023/12/05 06:13:44;;;;;;;89.93;29.63;;;;;;;5.16;100.00;99822.75;5208010;28;20040;-76
2023/12/05 06:16:15;;;;;;;72.72;27.55;;;;;;;5.14;100.00;99830.91;5209402;28;20037;-76
2023/12/05 06:18:45;;;;;;;82.35;27.05;;;;;;;5.15;100.00;99821.94;5209369;28;20124;-75
2023/12/05 06:21:16;;;;;;;76.28;27.80;;;;;;;5.14;100.00;99830.91;5206540;28;20026;-76
2023/12/05 06:23:47;;;;;;;71.70;27.23;;;;;;;5.08;100.00;99831.53;5208777;28;20399;-75
2023/12/05 06:26:19;;;;;;;80.80;26.83;;;;;;;5.10;100.00;99839.34;5226596;28;20112;-76
2023/12/05 06:28:49;;;;;;;74.80;25.83;;;;;;;5.11;100.00;99839.19;5206390;28;20022;-75
2023/12/05 06:31:20;;;;;;;85.85;27.60;;;;;;;5.05;100.00;99834.50;5209811;28;20039;-76
2023/12/05 06:33:51;;;;;;;79.07;25.92;;;;;;;5.05;100.00;99837.16;5192277;28;20034;-75
2023/12/05 06:36:21;;;;;;;75.32;27.85;;;;;;;5.08;100.00;99846.66;5208588;28;20036;-75
2023/12/05 06:38:52;;;;;;;76.65;26.73;;;;;;;5.06;100.00;99848.59;5201586;28;20029;-75
2023/12/05 06:41:22;;;;;;;84.90;29.92;;;;;;;5.06;100.00;99848.59;5207974;28;20490;-75
2023/12/05 06:43:53;;;;;;;69.88;26.60;;;;;;;5.09;100.00;99846.47;5207638;28;20044;-75
2023/12/05 06:46:23;;;;;;;77.40;26.95;;;;;;;5.10;100.00;99855.28;5211710;28;20029;-76
2023/12/05 06:48:54;;;;;;;81.07;28.10;;;;;;;5.03;100.00;99864.88;5192347;28;20044;-76
2023/12/05 06:51:25;;;;;;;81.68;28.80;;;;;;;5.04;100.00;99871.88;5205473;28;20782;-75
2023/12/05 06:53:55;;;;;;;89.80;30.52;;;;;;;5.04;100.00;99878.00;5208705;28;20432;-75
2023/12/05 06:56:26;;;;;;;81.68;27.88;;;;;;;5.10;100.00;99885.38;5207495;28;20108;-75
2023/12/05 06:58:58;;;;;;;83.93;31.13;;;;;;;5.11;100.00;99884.38;5204043;28;20025;-75
2023/12/05 07:01:28;;;;;;;79.47;30.88;;;;;;;5.06;100.00;99891.97;5207577;28;20037;-76
2023/12/05 07:03:59;;;;;;;100.47;31.13;;;;;;;5.09;100.00;99886.38;5207454;28;20031;-75
2023/12/05 07:06:29;;;;;;;81.20;29.23;;;;;;;5.14;100.00;99900.03;5208082;28;20037;-75
2023/12/05 07:09:00;;;;;;;98.32;31.70;;;;;;;5.15;100.00;99900.84;5199671;28;20026;-75
2023/12/05 07:11:31;;;;;;;95.05;30.30;;;;;;;5.08;100.00;99897.16;5198134;28;20035;-75
2023/12/05 07:14:02;;;;;;;97.28;30.10;;;;;;;5.03;100.00;99904.75;5197523;28;20381;-75
2023/12/05 07:16:33;;;;;;;97.47;31.13;;;;;;;5.06;100.00;99915.91;5205860;28;20025;-76
2023/12/05 07:19:04;;;;;;;107.93;33.15;;;;;;;5.01;100.00;99912.03;5203455;28;20040;-75
2023/12/05 07:21:34;;;;;;;124.50;34.80;;;;;;;4.97;100.00;99923.97;5205635;28;20477;-76
2023/12/05 07:24:05;;;;;;;99.47;33.28;;;;;;;4.97;100.00;99931.94;5203867;28;20475;-76
2023/12/05 07:26:36;;;;;;;92.93;32.22;;;;;;;5.04;100.00;99935.66;5204837;28;20026;-76
2023/12/05 07:29:07;;;;;;;95.57;31.10;;;;;;;5.04;100.00;99939.16;5203702;28;20017;-76
2023/12/05 07:31:38;;;;;;;85.97;29.50;;;;;;;5.03;100.00;99948.13;5208320;28;20032;-75
2023/12/05 07:34:08;;;;;;;90.72;30.50;;;;;;;5.02;100.00;99949.13;5207086;28;20017;-75
2023/12/05 07:36:40;;;;;;;98.72;30.50;;;;;;;5.04;100.00;99952.44;5203812;28;20049;-75
2023/12/05 07:39:12;;;;;;;82.43;29.67;;;;;;;5.01;100.00;99946.59;5206190;28;20040;-75
2023/12/05 07:41:43;;;;;;;101.50;32.70;;;;;;;5.03;100.00;99955.28;5209316;28;20040;-75
2023/12/05 07:44:14;;;;;;;111.22;35.95;;;;;;;5.03;100.00;99965.91;5206329;28;20025;-75
2023/12/05 07:46:45;;;;;;;106.15;33.28;;;;;;;5.03;100.00;99972.06;5213481;28;20128;-75
2023/12/05 07:49:15;;;;;;;101.40;34.22;;;;;;;5.04;100.00;99971.06;5206891;28;20021;-75
2023/12/05 07:51:48;;;;;;;121.03;36.67;;;;;;;5.06;100.00;99978.88;5211209;28;20549;-76
2023/12/05 07:54:18;;;;;;;125.00;38.70;;;;;;;5.09;100.00;99981.25;5211939;28;20045;-75
2023/12/05 07:56:48;;;;;;;123.15;38.78;;;;;;;5.05;100.00;99985.19;5207414;28;20029;-75
2023/12/05 07:59:19;;;;;;;135.43;38.65;;;;;;;5.08;100.00;99995.53;5210712;28;20029;-75
2023/12/05 08:01:50;;;;;;;133.93;40.50;;;;;;;5.10;100.00;99994.38;5208585;28;20059;-75
2023/12/05 08:04:20;;;;;;;132.02;37.80;;;;;;;5.07;100.00;100001.81;5207063;28;20045;-75
2023/12/05 08:06:51;;;;;;;124.93;38.90;;;;;;;5.09;100.00;99997.19;5211047;28;20033;-75
2023/12/05 08:09:21;;;;;;;130.43;39.80;;;;;;;5.10;100.00;100006.84;5210927;28;20040;-75
2023/12/05 08:11:52;;;;;;;125.13;40.05;;;;;;;5.11;100.00;100011.16;5210852;28;20480;-75
2023/12/05 08:14:22;;;;;;;124.22;38.53;;;;;;;5.10;100.00;100012.16;5221523;28;20048;-75
2023/12/05 08:16:53;;;;;;;126.85;37.25;;;;;;;5.08;100.00;100014.97;5209744;28;20043;-75
2023/12/05 08:19:23;;;;;;;128.13;37.20;;;;;;;5.00;100.00;100022.84;5213887;28;20086;-75
2023/12/05 08:21:54;;;;;;;126.43;37.65;;;;;;;5.00;100.00;100024.69;5208102;28;20063;-75
2023/12/05 08:24:24;;;;;;;129.77;39.03;;;;;;;4.99;100.00;100029.16;5214289;28;20032;-75
2023/12/05 08:26:55;;;;;;;120.60;37.80;;;;;;;4.99;100.00;100038.97;5200437;28;20196;-75
2023/12/05 08:29:25;;;;;;;136.82;40.28;;;;;;;4.98;100.00;100034.63;5212714;28;20021;-75
2023/12/05 08:31:56;;;;;;;150.40;42.53;;;;;;;5.02;100.00;100038.63;5208220;28;20037;-75
2023/12/05 08:34:26;;;;;;;151.60;43.30;;;;;;;4.96;100.00;100041.91;5199033;28;20032;-75
2023/12/05 08:36:57;;;;;;;168.27;44.85;;;;;;;5.05;100.00;100043.66;5207099;28;20432;-75
2023/12/05 08:39:27;;;;;;;160.48;45.55;;;;;;;5.03;100.00;100045.66;5208651;28;20503;-75
2023/12/05 08:41:59;;;;;;;164.68;45.97;;;;;;;5.08;100.00;100051.38;5207176;28;20033;-75
2023/12/05 08:44:31;;;;;;;179.20;45.65;;;;;;;5.12;100.00;100056.22;5208582;28;20386;-75
2023/12/05 08:47:02;;;;;;;168.57;45.47;;;;;;;5.10;100.00;100058.19;5210260;28;20064;-75
2023/12/05 08:49:32;;;;;;;169.80;45.15;;;;;;;5.09;100.00;100061.84;5206493;28;20120;-75
2023/12/05 08:52:03;;;;;;;163.40;45.97;;;;;;;5.08;100.00;100065.50;5208769;28;20030;-75
2023/12/05 08:54:34;;;;;;;162.07;44.65;;;;;;;5.08;100.00;100067.31;5207546;28;20131;-75
2023/12/05 08:57:05;;;;;;;146.52;42.17;;;;;;;5.03;100.00;100069.59;5208135;28;20508;-75
2023/12/05 08:59:35;;;;;;;155.95;43.25;;;;;;;5.09;100.00;100077.78;5212497;28;20253;-75
2023/12/05 09:02:06;;;;;;;142.55;45.60;;;;;;;5.09;100.00;100074.28;5207507;28;20365;-75
2023/12/05 09:04:37;;;;;;;146.35;41.55;;;;;;;5.07;100.00;100086.88;5205192;28;20059;-75
2023/12/05 09:07:07;;;;;;;144.98;42.13;;;;;;;5.10;100.00;100081.28;5210502;28;20033;-75
2023/12/05 09:09:41;;;;;;;149.57;40.70;;;;;;;5.15;100.00;100084.31;5208886;28;20389;-75
2023/12/05 09:12:11;;;;;;;154.07;42.28;;;;;;;5.19;100.00;100091.84;5206482;28;20029;-75
2023/12/05 09:14:42;;;;;;;136.35;39.65;;;;;;;5.23;100.00;100091.56;5204090;28;20365;-75
2023/12/05 09:17:14;;;;;;;136.15;40.25;;;;;;;5.36;100.00;100100.00;5206970;28;20021;-75
2023/12/05 09:19:45;;;;;;;130.15;39.83;;;;;;;5.38;100.00;100100.69;5210269;28;20033;-75
2023/12/05 09:22:15;;;;;;;117.65;36.83;;;;;;;5.41;100.00;100103.88;5208457;28;20095;-75
2023/12/05 09:24:47;;;;;;;99.05;35.00;;;;;;;5.32;100.00;100109.25;5211323;28;20403;-74
2023/12/05 09:27:17;;;;;;;105.57;34.85;;;;;;;5.35;100.00;100103.66;5206988;28;20023;-75
2023/12/05 09:29:48;;;;;;;99.57;33.08;;;;;;;5.41;100.00;100114.50;5209144;28;20021;-75
2023/12/05 09:32:18;;;;;;;100.65;32.00;;;;;;;5.49;100.00;100121.75;5207533;28;20036;-75
2023/12/05 09:34:49;;;;;;;95.57;32.80;;;;;;;5.49;100.00;100123.59;5208179;28;20388;-75
2023/12/05 09:37:19;;;;;;;90.57;32.92;;;;;;;5.46;100.00;100130.84;5210981;28;20091;-75
2023/12/05 09:39:50;;;;;;;88.53;31.42;;;;;;;5.42;100.00;100134.84;5205706;28;20089;-75
2023/12/05 09:42:24;;;;;;;92.30;30.35;;;;;;;5.41;100.00;100146.44;5204171;28;20150;-75
2023/12/05 09:44:58;;;;;;;100.32;31.77;;;;;;;5.40;100.00;100163.38;5209155;28;20025;-75
2023/12/05 09:47:30;;;;;;;90.60;29.58;;;;;;;5.36;100.00;100155.84;5210622;28;20017;-75
2023/12/05 09:50:01;;;;;;;95.30;30.95;;;;;;;5.36;100.00;100163.84;5208270;28;20033;-75
2023/12/05 09:52:32;;;;;;;89.28;30.65;;;;;;;5.36;100.00;100162.00;5208036;28;20021;-75
2023/12/05 09:55:03;;;;;;;92.22;30.30;;;;;;;5.41;100.00;100174.88;5208095;28;20132;-75
2023/12/05 09:57:36;;;;;;;104.43;31.90;;;;;;;5.39;100.00;100168.88;5209913;28;20519;-75
2023/12/05 10:00:08;;;;;;;99.38;30.90;;;;;;;5.35;100.00;100178.13;5203347;28;20029;-74
2023/12/05 10:02:40;;;;;;;94.38;30.73;;;;;;;5.36;100.00;100182.44;5209808;28;20495;-74
2023/12/05 10:05:14;;;;;;;98.93;30.33;;;;;;;5.30;100.00;100181.22;5204245;28;20723;-74
2023/12/05 10:07:46;;;;;;;84.53;28.92;;;;;;;5.37;100.00;100177.00;5211155;28;20032;-74
2023/12/05 10:10:19;;;;;;;95.78;30.92;;;;;;;5.38;100.00;100188.47;5207840;28;20124;-74
2023/12/05 10:12:50;;;;;;;86.00;28.70;;;;;;;5.32;100.00;100187.25;5204476;28;20108;-74
2023/12/05 10:15:22;;;;;;;89.57;27.95;;;;;;;5.33;100.00;100190.75;5207036;28;20488;-74
2023/12/05 10:17:53;;;;;;;84.00;29.50;;;;;;;5.32;100.00;100199.69;5207605;28;20033;-75
2023/12/05 10:20:24;;;;;;;79.38;25.58;;;;;;;5.20;100.00;100199.06;5210565;28;20029;-74
2023/12/05 10:22:54;;;;;;;66.90;24.45;;;;;;;5.27;100.00;100200.16;5205574;28;20036;-74
2023/12/05 10:25:25;;;;;;;73.97;26.95;;;;;;;5.27;100.00;100199.28;5209954;28;20036;-75
2023/12/05 10:28:04;;;;;;;65.00;22.55;;;;;;;5.22;100.00;100204.22;5208848;28;20485;-74
2023/12/05 10:30:37;;;;;;;66.35;24.35;;;;;;;5.16;100.00;100200.34;5201603;28;20033;-74
2023/12/05 10:33:13;;;;;;;66.15;23.63;;;;;;;5.19;100.00;100205.38;5208700;28;20611;-75
2023/12/05 10:35:45;;;;;;;63.53;22.95;;;;;;;5.12;100.00;100220.22;5206902;28;20032;-75
2023/12/05 10:38:17;;;;;;;60.92;21.80;;;;;;;5.15;100.00;100218.09;5207932;28;20105;-74
2023/12/05 10:40:52;;;;;;;65.28;24.83;;;;;;;5.17;100.00;100218.81;5206258;28;20308;-74
2023/12/05 10:43:25;;;;;;;61.03;20.48;;;;;;;5.16;100.00;100224.25;5209176;28;20053;-74
2023/12/05 10:45:57;;;;;;;59.60;20.85;;;;;;;5.15;100.00;100231.41;5208652;28;20040;-74
2023/12/05 10:48:28;;;;;;;56.75;20.15;;;;;;;5.22;100.00;100233.47;5207870;28;20399;-74
2023/12/05 10:51:01;;;;;;;53.15;19.55;;;;;;;5.22;100.00;100234.34;5207064;28;20026;-74
2023/12/05 10:53:35;;;;;;;51.05;19.00;;;;;;;5.25;100.00;100236.69;5196019;28;20542;-74
2023/12/05 10:56:12;;;;;;;55.80;20.70;;;;;;;5.23;100.00;100237.84;5206400;28;20025;-74
2023/12/05 10:58:43;;;;;;;51.03;18.58;;;;;;;5.22;100.00;100241.44;5200832;28;20411;-74
2023/12/05 11:01:13;;;;;;;55.08;19.77;;;;;;;5.24;100.00;100244.81;5205463;28;20022;-74
2023/12/05 11:03:44;;;;;;;55.58;19.75;;;;;;;5.14;100.00;100245.69;5211668;28;20108;-74
2023/12/05 11:06:15;;;;;;;57.38;21.15;;;;;;;5.11;100.00;100247.78;5210326;28;20049;-75
2023/12/05 11:08:45;;;;;;;52.38;19.33;;;;;;;5.03;100.00;100248.53;5206650;28;20687;-74
2023/12/05 11:11:18;;;;;;;50.70;19.98;;;;;;;5.00;100.00;100256.78;5210276;28;20033;-74
2023/12/05 11:13:51;;;;;;;56.95;20.92;;;;;;;4.90;100.00;100253.31;5206858;28;20056;-74
2023/12/05 11:16:25;;;;;;;61.50;20.15;;;;;;;4.82;100.00;100251.41;5214448;28;20033;-74
2023/12/05 11:19:15;;;;;;;59.85;21.77;;;;;;;4.82;100.00;100254.06;5211804;28;20202;-74
2023/12/05 11:22:05;;;;;;;63.70;22.92;;;;;;;4.85;100.00;100256.41;5205915;28;20037;-74
2023/12/05 11:24:50;;;;;;;67.05;22.85;;;;;;;4.89;100.00;100257.81;5207858;28;20065;-74
2023/12/05 11:27:27;;;;;;;66.43;22.90;;;;;;;4.89;100.00;100267.59;5210180;28;20036;-74
2023/12/05 11:30:23;;;;;;;66.00;23.60;;;;;;;4.87;100.00;100269.53;5208840;28;20151;-74
2023/12/05 11:33:11;;;;;;;70.82;24.60;;;;;;;4.88;100.00;100280.06;5205893;28;20087;-74